Time;durP1;ratioP1;P1;durP2;ratioP2;P2;SDS_P1;SDS_P2;PMS_P1;PMS_P2;Temp;Humidity;BMP_temperature;BMP_pressure;BME280_temperature;BME280_humidity;BME280_pressure;Samples;Min_cycle;Max_cycle;Signal;HPM_P1;HPM_P2
2022/07/30 00:01:33;;;;;;;22.52;20.77;;;16.60;99.90;;;;;;5035111;28;20527;-73
2022/07/30 00:04:01;;;;;;;22.67;20.65;;;16.60;99.90;;;;;;5021056;28;20224;-74
2022/07/30 00:06:28;;;;;;;22.83;21.13;;;16.80;99.90;;;;;;5016499;28;20044;-74
2022/07/30 00:08:55;;;;;;;23.52;21.75;;;16.80;99.90;;;;;;5038006;28;20051;-73
2022/07/30 00:11:21;;;;;;;23.60;21.52;;;16.90;99.90;;;;;;5036354;28;20570;-74
2022/07/30 00:13:54;;;;;;;23.48;21.35;;;17.00;99.90;;;;;;5038537;28;20064;-74
2022/07/30 00:16:21;;;;;;;24.58;22.40;;;17.00;99.90;;;;;;5035021;28;20044;-74
2022/07/30 00:18:48;;;;;;;23.20;21.40;;;17.00;99.90;;;;;;5039055;28;20248;-74
2022/07/30 00:21:15;;;;;;;23.80;21.63;;;17.00;99.90;;;;;;5020510;28;20037;-74
2022/07/30 00:24:03;;;;;;;26.02;23.77;;;16.90;99.90;;;;;;5032258;28;20414;-74
2022/07/30 00:26:29;;;;;;;25.45;23.13;;;16.90;99.90;;;;;;5035664;28;20075;-74
2022/07/30 00:28:56;;;;;;;25.25;23.05;;;16.90;99.90;;;;;;5026323;28;20044;-74
2022/07/30 00:31:23;;;;;;;26.45;24.25;;;16.90;99.90;;;;;;5017093;28;20502;-74
2022/07/30 00:33:50;;;;;;;26.05;23.77;;;16.90;99.90;;;;;;5019706;28;20136;-74
2022/07/30 00:36:16;;;;;;;27.27;24.60;;;17.00;99.90;;;;;;5019688;28;20577;-74
2022/07/30 00:38:44;;;;;;;25.52;23.27;;;17.00;99.90;;;;;;5003436;28;20094;-74
2022/07/30 00:41:11;;;;;;;26.92;24.63;;;17.00;99.90;;;;;;5017021;28;20041;-74
2022/07/30 00:43:39;;;;;;;26.23;23.92;;;17.00;99.90;;;;;;4997224;28;20479;-74
2022/07/30 00:46:05;;;;;;;26.83;24.33;;;17.00;99.90;;;;;;5033023;28;20454;-77
2022/07/30 00:48:40;;;;;;;27.92;25.20;;;16.90;99.90;;;;;;5030196;28;20292;-75
2022/07/30 00:51:06;;;;;;;26.95;24.40;;;16.90;99.90;;;;;;5027015;28;20041;-76
2022/07/30 00:53:35;;;;;;;27.23;24.52;;;16.60;99.90;;;;;;5015033;28;20133;-76
2022/07/30 00:56:03;;;;;;;27.90;25.38;;;16.60;99.90;;;;;;5040902;22;20123;-72
2022/07/30 00:58:30;;;;;;;28.88;26.25;;;16.70;99.90;;;;;;5011100;28;20558;-73
2022/07/30 01:00:57;;;;;;;30.00;25.70;;;16.70;99.90;;;;;;5014156;28;20033;-72
2022/07/30 01:03:24;;;;;;;29.05;26.00;;;16.70;99.90;;;;;;5024421;28;20119;-72
2022/07/30 01:05:51;;;;;;;25.17;22.80;;;16.60;99.90;;;;;;5020605;28;20053;-73
2022/07/30 01:08:18;;;;;;;25.65;23.30;;;16.50;99.90;;;;;;5010310;28;20049;-73
2022/07/30 01:10:44;;;;;;;25.88;23.60;;;16.50;99.90;;;;;;5017922;28;20041;-73
2022/07/30 01:13:11;;;;;;;25.52;22.98;;;16.60;99.90;;;;;;5015899;28;20045;-73
2022/07/30 01:15:38;;;;;;;25.08;22.70;;;16.60;99.90;;;;;;5011105;28;20504;-72
2022/07/30 01:18:08;;;;;;;25.17;22.88;;;16.60;99.90;;;;;;5013871;28;20556;-72
2022/07/30 01:20:44;;;;;;;25.75;23.17;;;16.40;99.90;;;;;;5016181;28;20075;-73
2022/07/30 01:23:11;;;;;;;;;;;16.40;99.90;;;;;;5011636;28;20053;-73
2022/07/30 01:25:57;;;;;;;26.05;23.70;;;16.60;99.90;;;;;;5026367;28;19999;-72
2022/07/30 01:28:30;;;;;;;26.05;23.25;;;16.60;99.90;;;;;;5010922;28;20439;-72
2022/07/30 01:30:57;;;;;;;25.60;23.10;;;16.50;99.90;;;;;;5007672;28;20164;-73
2022/07/30 01:33:26;;;;;;;26.08;23.60;;;16.50;99.90;;;;;;5029807;28;20045;-72
2022/07/30 01:35:54;;;;;;;27.17;24.60;;;16.50;99.90;;;;;;5023181;28;20361;-72
2022/07/30 01:38:26;;;;;;;24.95;22.33;;;16.50;99.90;;;;;;5014577;28;20156;-71
2022/07/30 01:40:57;;;;;;;22.83;20.67;;;16.40;99.90;;;;;;5014590;28;20041;-72
2022/07/30 01:43:25;;;;;;;24.75;22.23;;;16.20;99.90;;;;;;4994084;28;20121;-73
2022/07/30 01:45:53;;;;;;;21.05;18.98;;;16.20;99.90;;;;;;5013066;28;20229;-73
2022/07/30 01:48:23;;;;;;;22.73;19.60;;;16.20;99.90;;;;;;5023392;28;20037;-71
2022/07/30 01:50:54;;;;;;;21.50;19.42;;;16.20;99.90;;;;;;5015561;28;20117;-72
2022/07/30 01:53:25;;;;;;;20.85;18.65;;;16.10;99.90;;;;;;5013624;28;20396;-71
2022/07/30 01:55:54;;;;;;;22.67;20.45;;;15.90;99.90;;;;;;5028365;28;20180;-72
2022/07/30 01:58:26;;;;;;;23.67;20.70;;;16.00;99.90;;;;;;5016658;28;20388;-72
2022/07/30 02:00:59;;;;;;;24.33;22.08;;;15.90;99.90;;;;;;5035171;28;20653;-73
2022/07/30 02:03:30;;;;;;;23.70;21.20;;;15.90;99.90;;;;;;4992846;28;20049;-73
2022/07/30 02:06:04;;;;;;;23.50;21.23;;;15.90;99.90;;;;;;5029647;28;20377;-73
2022/07/30 02:08:39;;;;;;;22.73;20.60;;;15.80;99.90;;;;;;5016256;28;20102;-73
2022/07/30 02:11:13;;;;;;;26.42;20.33;;;15.90;99.90;;;;;;5032926;28;20147;-73
2022/07/30 02:13:51;;;;;;;24.03;21.90;;;16.00;99.90;;;;;;5011394;28;20049;-72
2022/07/30 02:16:26;;;;;;;23.40;21.02;;;16.00;99.90;;;;;;5015625;28;20790;-73
2022/07/30 02:19:05;;;;;;;23.10;20.58;;;16.00;99.90;;;;;;5018074;28;20059;-74
2022/07/30 02:21:40;;;;;;;22.10;20.08;;;15.80;99.90;;;;;;4995333;28;20038;-72
2022/07/30 02:24:22;;;;;;;24.65;20.67;;;16.00;99.90;;;;;;5014507;28;20088;-74
2022/07/30 02:26:54;;;;;;;22.63;20.50;;;16.00;99.90;;;;;;5028030;28;20283;-72
2022/07/30 02:29:22;;;;;;;23.40;21.20;;;16.00;99.90;;;;;;5013754;28;20305;-71
2022/07/30 02:31:51;;;;;;;23.17;21.05;;;16.00;99.90;;;;;;5015464;28;20535;-72
2022/07/30 02:34:21;;;;;;;23.45;21.55;;;16.10;99.90;;;;;;5014250;28;20547;-71
2022/07/30 02:36:50;;;;;;;22.63;20.38;;;16.10;99.90;;;;;;5023715;28;20321;-73
2022/07/30 02:39:19;;;;;;;21.88;19.98;;;16.20;99.90;;;;;;5023075;28;20103;-70
2022/07/30 02:41:47;;;;;;;23.13;21.05;;;16.20;99.90;;;;;;5016981;28;20729;-73
2022/07/30 02:44:19;;;;;;;24.20;22.00;;;16.20;99.90;;;;;;5016257;28;20161;-73
2022/07/30 02:46:48;;;;;;;22.95;20.98;;;16.10;99.90;;;;;;5013642;28;20987;-72
2022/07/30 02:49:29;;;;;;;26.52;22.45;;;16.20;99.90;;;;;;5013602;28;20350;-72
2022/07/30 02:51:57;;;;;;;23.83;21.58;;;16.20;99.90;;;;;;5017281;28;20045;-72
2022/07/30 02:54:25;;;;;;;22.73;20.77;;;16.20;99.90;;;;;;5015927;28;20045;-72
2022/07/30 02:56:54;;;;;;;21.88;20.23;;;16.20;99.90;;;;;;5016100;28;20134;-73
2022/07/30 02:59:23;;;;;;;22.55;20.73;;;16.00;99.90;;;;;;5030305;28;20418;-71
2022/07/30 03:01:52;;;;;;;22.35;20.42;;;15.90;99.90;;;;;;5000602;28;20191;-71
2022/07/30 03:04:20;;;;;;;21.92;20.15;;;16.00;99.90;;;;;;5014935;28;20065;-72
2022/07/30 03:06:49;;;;;;;21.52;19.55;;;16.10;99.90;;;;;;5023174;28;20053;-72
2022/07/30 03:09:17;;;;;;;23.92;21.70;;;16.10;99.90;;;;;;5016294;28;20423;-72
2022/07/30 03:11:45;;;;;;;22.58;20.65;;;16.10;99.90;;;;;;5018691;28;20144;-71
2022/07/30 03:14:12;;;;;;;23.23;21.08;;;16.00;99.90;;;;;;5016635;28;20137;-72
2022/07/30 03:16:46;;;;;;;21.67;19.92;;;15.90;99.90;;;;;;5027381;28;20037;-74
2022/07/30 03:19:16;;;;;;;20.10;18.40;;;15.90;99.90;;;;;;4999035;28;20515;-71
2022/07/30 03:21:45;;;;;;;20.02;18.33;;;15.70;99.90;;;;;;5013296;28;20049;-71
2022/07/30 03:24:13;;;;;;;21.23;19.38;;;15.70;99.90;;;;;;5015537;28;20041;-72
2022/07/30 03:26:41;;;;;;;20.20;18.50;;;15.90;99.90;;;;;;5012202;28;20141;-72
2022/07/30 03:29:09;;;;;;;21.27;19.58;;;15.90;99.90;;;;;;5005118;28;20052;-74
2022/07/30 03:31:39;;;;;;;22.25;20.48;;;15.90;99.90;;;;;;4995305;28;20461;-72
2022/07/30 03:34:07;;;;;;;21.73;19.70;;;15.90;99.90;;;;;;4999288;28;20033;-72
2022/07/30 03:36:35;;;;;;;23.33;21.35;;;15.90;99.90;;;;;;5020015;28;20040;-72
2022/07/30 03:39:04;;;;;;;23.50;21.58;;;16.00;99.90;;;;;;5021616;28;20459;-70
2022/07/30 03:41:32;;;;;;;26.00;23.63;;;16.10;99.90;;;;;;5010168;28;20046;-72
2022/07/30 03:44:00;;;;;;;26.50;23.88;;;16.10;99.90;;;;;;4993269;28;20107;-71
2022/07/30 03:46:29;;;;;;;23.75;21.88;;;16.20;99.90;;;;;;5012715;28;20511;-72
2022/07/30 03:48:57;;;;;;;26.73;24.02;;;16.30;99.90;;;;;;5023480;28;20041;-71
2022/07/30 03:51:25;;;;;;;24.58;22.38;;;16.40;99.90;;;;;;5014835;28;20491;-71
2022/07/30 03:54:00;;;;;;;20.10;18.25;;;16.40;99.90;;;;;;5037535;28;20072;-72
2022/07/30 03:56:48;;;;;;;18.40;16.90;;;16.00;99.90;;;;;;5000689;28;20464;-73
2022/07/30 03:59:30;;;;;;;19.65;17.58;;;15.70;99.90;;;;;;5010610;28;20049;-72
2022/07/30 04:02:02;;;;;;;16.85;15.18;;;15.60;99.90;;;;;;5013298;28;20037;-73
2022/07/30 04:04:53;;;;;;;22.23;17.23;;;15.50;99.90;;;;;;5016041;28;21860;-73
2022/07/30 04:07:21;;;;;;;19.50;17.58;;;15.50;99.90;;;;;;5011690;28;20041;-72
2022/07/30 04:09:48;;;;;;;17.75;16.10;;;15.50;99.90;;;;;;5013342;28;20033;-72
2022/07/30 04:12:40;;;;;;;19.35;17.27;;;15.60;99.90;;;;;;5016265;28;20912;-72
2022/07/30 04:15:08;;;;;;;19.63;17.95;;;15.60;99.90;;;;;;5019234;28;20068;-73
2022/07/30 04:18:00;;;;;;;20.92;19.00;;;15.80;99.90;;;;;;5029642;28;20588;-73
2022/07/30 04:20:33;;;;;;;20.70;18.80;;;16.00;99.90;;;;;;5011572;28;20072;-73
2022/07/30 04:23:01;;;;;;;21.90;19.65;;;16.10;99.90;;;;;;5027150;28;20195;-73
2022/07/30 04:25:29;;;;;;;21.98;19.88;;;16.20;99.90;;;;;;5028177;28;20504;-73
2022/07/30 04:27:56;;;;;;;24.67;20.45;;;16.10;99.90;;;;;;5031173;28;20045;-72
2022/07/30 04:30:33;;;;;;;24.08;18.90;;;16.00;99.90;;;;;;5010098;28;20752;-70
2022/07/30 04:33:04;;;;;;;20.40;18.33;;;15.90;99.90;;;;;;5014288;28;20431;-73
2022/07/30 04:35:53;;;;;;;20.20;18.30;;;15.80;99.90;;;;;;5004714;28;20180;-73
2022/07/30 04:38:35;;;;;;;20.55;18.40;;;15.80;99.90;;;;;;5010239;28;20555;-71
2022/07/30 04:41:02;;;;;;;19.05;17.10;;;15.90;99.90;;;;;;5014087;28;20046;-73
2022/07/30 04:43:38;;;;;;;19.23;17.52;;;16.00;99.90;;;;;;4995975;28;20212;-73
2022/07/30 04:46:04;;;;;;;20.88;18.50;;;16.00;99.90;;;;;;5018173;28;20124;-71
2022/07/30 04:48:31;;;;;;;19.80;18.10;;;16.00;99.90;;;;;;5012432;28;20057;-72
2022/07/30 04:51:15;;;;;;;20.42;18.27;;;16.00;99.90;;;;;;5015812;28;20049;-71
2022/07/30 04:53:44;;;;;;;20.42;18.30;;;16.10;99.90;;;;;;5017344;28;20373;-72
2022/07/30 04:56:12;;;;;;;25.35;22.85;;;16.20;99.90;;;;;;5019251;28;20508;-72
2022/07/30 04:58:40;;;;;;;23.48;21.45;;;16.10;99.90;;;;;;5011462;28;20518;-75
2022/07/30 05:01:08;;;;;;;21.88;20.08;;;16.10;99.90;;;;;;5001152;28;20042;-74
2022/07/30 05:03:37;;;;;;;22.15;19.92;;;16.10;99.90;;;;;;5009375;28;20111;-74
2022/07/30 05:06:06;;;;;;;22.20;20.25;;;16.10;99.90;;;;;;5013825;28;20045;-74
2022/07/30 05:08:37;;;;;;;22.35;19.98;;;16.20;99.90;;;;;;5009709;28;20426;-75
2022/07/30 05:11:11;;;;;;;22.52;20.50;;;16.30;99.90;;;;;;4998279;28;20046;-72
2022/07/30 05:13:47;;;;;;;22.33;20.13;;;16.40;99.90;;;;;;5010892;28;20361;-71
2022/07/30 05:16:17;;;;;;;21.65;19.70;;;16.60;99.90;;;;;;5016379;28;20052;-72
2022/07/30 05:18:44;;;;;;;22.67;20.63;;;16.60;99.90;;;;;;5027268;28;20301;-72
2022/07/30 05:21:11;;;;;;;23.40;21.15;;;16.70;99.90;;;;;;5012907;28;20045;-71
2022/07/30 05:23:43;;;;;;;22.08;20.40;;;16.60;99.90;;;;;;5022202;28;20056;-71
2022/07/30 05:26:25;;;;;;;23.25;21.05;;;16.70;99.90;;;;;;5006502;28;20495;-72
2022/07/30 05:28:54;;;;;;;22.63;20.38;;;16.80;99.90;;;;;;5033283;28;20448;-73
2022/07/30 05:31:36;;;;;;;22.83;20.60;;;16.80;99.90;;;;;;5026147;28;20049;-72
2022/07/30 05:34:05;;;;;;;22.27;20.27;;;16.80;99.90;;;;;;4997023;28;20121;-73
2022/07/30 05:36:43;;;;;;;24.02;21.58;;;16.80;99.90;;;;;;5009511;28;20339;-72
2022/07/30 05:39:12;;;;;;;22.88;20.73;;;16.80;99.90;;;;;;5019267;28;20048;-75
2022/07/30 05:41:51;;;;;;;22.95;21.05;;;16.80;99.90;;;;;;5013133;28;20151;-73
2022/07/30 05:44:21;;;;;;;24.38;22.23;;;16.80;99.90;;;;;;5010927;28;20148;-71
2022/07/30 05:46:51;;;;;;;23.50;21.33;;;16.80;99.90;;;;;;5011167;28;20087;-72
2022/07/30 05:49:18;;;;;;;23.52;21.45;;;16.90;99.90;;;;;;5017814;28;20037;-71
2022/07/30 05:51:45;;;;;;;21.92;20.13;;;16.90;99.90;;;;;;5010451;28;20045;-73
2022/07/30 05:54:12;;;;;;;21.90;19.83;;;16.90;99.90;;;;;;5017557;28;20171;-73
2022/07/30 05:56:42;;;;;;;22.80;20.73;;;17.00;99.90;;;;;;5011171;28;20280;-72
2022/07/30 05:59:32;;;;;;;23.00;21.13;;;17.00;99.90;;;;;;5004993;28;20057;-72
2022/07/30 06:02:02;;;;;;;22.58;20.58;;;17.10;99.90;;;;;;5015962;28;20038;-73
2022/07/30 06:04:42;;;;;;;22.30;20.48;;;17.10;99.90;;;;;;5003504;28;20149;-74
2022/07/30 06:07:12;;;;;;;22.10;20.45;;;17.10;99.90;;;;;;5016906;28;20133;-75
2022/07/30 06:09:39;;;;;;;23.15;21.02;;;17.10;99.90;;;;;;4996567;28;20045;-75
2022/07/30 06:12:07;;;;;;;22.10;20.00;;;17.10;99.90;;;;;;5024522;28;20069;-74
2022/07/30 06:14:34;;;;;;;22.17;20.48;;;17.10;99.90;;;;;;5014718;28;20149;-73
2022/07/30 06:17:01;;;;;;;24.42;21.88;;;17.20;99.90;;;;;;5017482;28;20038;-75
2022/07/30 06:19:45;;;;;;;23.15;21.17;;;17.20;99.90;;;;;;5013061;28;20037;-74
2022/07/30 06:22:12;;;;;;;22.02;20.00;;;17.20;99.90;;;;;;5022160;28;20037;-75
2022/07/30 06:24:44;;;;;;;23.77;21.70;;;17.30;99.90;;;;;;5014193;28;20048;-75
2022/07/30 06:27:16;;;;;;;23.40;21.40;;;17.30;99.90;;;;;;5016070;28;20045;-74
2022/07/30 06:29:43;;;;;;;23.13;21.02;;;17.30;99.90;;;;;;5021119;28;20056;-72
2022/07/30 06:32:10;;;;;;;23.13;21.20;;;17.30;99.90;;;;;;4999596;28;20118;-72
2022/07/30 06:34:37;;;;;;;23.65;21.65;;;17.30;99.90;;;;;;5018835;28;20121;-72
2022/07/30 06:37:04;;;;;;;23.60;21.70;;;17.40;99.90;;;;;;5027696;28;20045;-73
2022/07/30 06:39:31;;;;;;;24.50;22.23;;;17.40;99.90;;;;;;4998182;28;20504;-73
2022/07/30 06:42:18;;;;;;;26.02;23.80;;;17.50;99.90;;;;;;5019313;28;20077;-73
2022/07/30 06:45:08;;;;;;;25.52;23.40;;;17.50;99.90;;;;;;5023449;28;20045;-74
2022/07/30 06:48:07;;;;;;;24.23;22.05;;;17.50;99.90;;;;;;5023869;28;20061;-73
2022/07/30 06:50:36;;;;;;;25.08;22.90;;;17.60;99.90;;;;;;5011496;28;20037;-73
2022/07/30 06:53:03;;;;;;;24.65;22.65;;;17.60;99.90;;;;;;4999491;28;20261;-71
2022/07/30 06:55:49;;;;;;;24.83;22.77;;;17.60;99.90;;;;;;5015720;28;20464;-72
2022/07/30 06:58:19;;;;;;;23.85;21.95;;;17.80;99.90;;;;;;5014618;28;20065;-72
2022/07/30 07:01:17;;;;;;;24.98;23.05;;;17.80;99.90;;;;;;5017800;28;20046;-72
2022/07/30 07:03:44;;;;;;;25.90;23.67;;;17.70;99.90;;;;;;5014197;28;20154;-74
2022/07/30 07:06:11;;;;;;;25.77;23.80;;;17.70;99.90;;;;;;5015234;28;20080;-73
2022/07/30 07:08:37;;;;;;;25.60;23.52;;;17.70;99.90;;;;;;5010288;28;20089;-73
2022/07/30 07:11:06;;;;;;;25.88;23.55;;;17.70;99.90;;;;;;5013254;28;20099;-73
2022/07/30 07:13:42;;;;;;;26.15;24.05;;;17.70;99.90;;;;;;5013343;28;20717;-74
2022/07/30 07:16:14;;;;;;;26.20;23.70;;;17.80;99.90;;;;;;5013998;28;20251;-73
2022/07/30 07:18:46;;;;;;;30.55;27.83;;;17.90;99.90;;;;;;5015055;28;20038;-72
2022/07/30 07:21:14;;;;;;;32.80;30.02;;;18.00;99.90;;;;;;5018091;28;20652;-73
2022/07/30 07:23:42;;;;;;;34.28;30.70;;;18.10;99.90;;;;;;5011927;28;20140;-73
2022/07/30 07:26:32;;;;;;;35.08;31.85;;;18.20;99.90;;;;;;5007391;28;20670;-72
2022/07/30 07:28:59;;;;;;;36.85;33.55;;;18.20;99.90;;;;;;5014082;28;20333;-72
2022/07/30 07:31:31;;;;;;;35.63;32.63;;;18.20;99.90;;;;;;5012505;28;20126;-73
2022/07/30 07:34:18;;;;;;;35.90;32.58;;;18.40;99.90;;;;;;5013222;28;20061;-72
2022/07/30 07:36:45;;;;;;;36.28;32.97;;;18.60;99.90;;;;;;5011110;28;20088;-73
2022/07/30 07:39:12;;;;;;;36.20;32.92;;;18.90;99.90;;;;;;5011975;28;20052;-73
2022/07/30 07:41:42;;;;;;;36.58;33.47;;;19.20;99.90;;;;;;5029018;28;20092;-73
2022/07/30 07:44:18;;;;;;;35.08;31.95;;;19.70;99.90;;;;;;5014001;28;20049;-74
2022/07/30 07:46:45;;;;;;;35.33;32.05;;;20.20;99.90;;;;;;5010759;28;20411;-73
2022/07/30 07:49:12;;;;;;;35.47;32.42;;;20.70;99.90;;;;;;5015457;28;20041;-73
2022/07/30 07:51:44;;;;;;;35.13;32.40;;;21.00;99.90;;;;;;5011595;28;20045;-72
2022/07/30 07:54:16;;;;;;;34.70;31.77;;;21.20;99.90;;;;;;5014789;28;20634;-72
2022/07/30 07:56:54;;;;;;;34.72;31.77;;;21.40;99.90;;;;;;4997812;28;20226;-73
2022/07/30 07:59:37;;;;;;;34.28;31.35;;;21.50;99.90;;;;;;5009654;28;20739;-73
2022/07/30 08:02:10;;;;;;;34.65;31.38;;;21.50;99.90;;;;;;5012582;28;20038;-71
2022/07/30 08:04:50;;;;;;;34.38;31.52;;;21.50;99.90;;;;;;5020452;28;20049;-72
2022/07/30 08:07:16;;;;;;;35.53;32.70;;;21.40;99.90;;;;;;5022117;28;20456;-72
2022/07/30 08:10:02;;;;;;;35.08;32.08;;;21.50;99.90;;;;;;5015721;28;20434;-72
2022/07/30 08:12:45;;;;;;;35.00;31.77;;;21.80;99.90;;;;;;5012570;28;20120;-73
2022/07/30 08:15:49;;;;;;;34.80;32.33;;;22.10;99.90;;;;;;5019854;28;20041;-73
2022/07/30 08:18:45;;;;;;;35.92;32.72;;;22.10;99.90;;;;;;5025907;28;20046;-75
2022/07/30 08:21:27;;;;;;;34.42;31.40;;;22.10;99.90;;;;;;4996314;28;20045;-72
2022/07/30 08:23:54;;;;;;;36.20;33.33;;;22.30;99.90;;;;;;5013774;28;20488;-72
2022/07/30 08:26:21;;;;;;;36.28;33.03;;;22.30;99.90;;;;;;5010533;28;20049;-69
2022/07/30 08:28:48;;;;;;;35.55;32.85;;;22.30;99.90;;;;;;5028202;28;20040;-73
2022/07/30 08:31:15;;;;;;;35.88;32.65;;;22.40;99.90;;;;;;5020697;28;20065;-71
2022/07/30 08:33:44;;;;;;;32.70;30.48;;;22.50;99.90;;;;;;5018120;28;20056;-72
2022/07/30 08:36:12;;;;;;;33.90;31.13;;;22.90;99.90;;;;;;5014259;28;20083;-73
2022/07/30 08:38:39;;;;;;;34.05;31.48;;;23.00;99.90;;;;;;5031773;28;20084;-72
2022/07/30 08:41:07;;;;;;;34.40;31.80;;;22.90;99.90;;;;;;5013415;28;20414;-74
2022/07/30 08:43:36;;;;;;;37.30;34.00;;;23.10;99.90;;;;;;5012190;28;20068;-73
2022/07/30 08:46:09;;;;;;;35.03;32.00;;;23.30;99.90;;;;;;5008050;28;20554;-72
2022/07/30 08:48:51;;;;;;;34.22;31.63;;;23.40;99.90;;;;;;5013159;28;20208;-73
2022/07/30 08:51:19;;;;;;;33.03;30.50;;;23.50;99.90;;;;;;5027854;28;20057;-73
2022/07/30 08:54:20;;;;;;;33.67;31.27;;;23.80;99.90;;;;;;5015028;28;20052;-72
2022/07/30 08:56:51;;;;;;;32.55;30.13;;;23.70;99.90;;;;;;5030351;28;20682;-73
2022/07/30 08:59:17;;;;;;;35.05;32.20;;;23.70;99.90;;;;;;4995144;28;20050;-71
2022/07/30 09:01:44;;;;;;;34.22;31.58;;;23.80;99.90;;;;;;5010665;28;20099;-72
2022/07/30 09:04:11;;;;;;;32.28;30.02;;;23.80;99.90;;;;;;5015001;28;20069;-73
2022/07/30 09:06:39;;;;;;;32.97;30.60;;;23.90;99.90;;;;;;5010844;28;20045;-72
2022/07/30 09:09:06;;;;;;;30.63;28.63;;;24.00;99.90;;;;;;5017571;28;20036;-73
2022/07/30 09:11:37;;;;;;;32.85;30.55;;;24.20;99.90;;;;;;5017046;28;20053;-72
2022/07/30 09:14:09;;;;;;;32.65;30.08;;;24.00;99.90;;;;;;5028797;28;20049;-73
2022/07/30 09:16:36;;;;;;;34.08;31.33;;;23.80;99.90;;;;;;5009214;28;20080;-72
2022/07/30 09:19:16;;;;;;;33.90;31.23;;;24.10;99.90;;;;;;5029945;28;20564;-73
2022/07/30 09:21:58;;;;;;;31.80;29.70;;;24.10;99.90;;;;;;5010311;28;20080;-74
2022/07/30 09:24:48;;;;;;;34.33;31.73;;;24.00;99.90;;;;;;5013707;28;20041;-73
2022/07/30 09:27:48;;;;;;;30.95;28.52;;;23.90;99.90;;;;;;5010704;28;20045;-73
2022/07/30 09:30:50;;;;;;;31.60;29.65;;;24.00;99.90;;;;;;4995804;28;20601;-74
2022/07/30 09:33:38;;;;;;;31.50;29.33;;;24.50;99.90;;;;;;5014309;28;20048;-74
2022/07/30 09:36:31;;;;;;;34.10;31.52;;;24.70;99.90;;;;;;5010643;28;20183;-73
2022/07/30 09:39:35;;;;;;;32.03;29.92;;;24.50;99.90;;;;;;5014536;28;20478;-71
2022/07/30 09:42:27;;;;;;;33.30;30.77;;;24.60;99.90;;;;;;5008145;28;20071;-73
2022/07/30 09:45:11;;;;;;;31.92;29.92;;;24.90;99.90;;;;;;5015934;28;20052;-73
2022/07/30 09:47:43;;;;;;;31.58;29.35;;;25.10;99.90;;;;;;4992640;28;20463;-75
2022/07/30 09:50:12;;;;;;;32.13;29.77;;;25.30;99.90;;;;;;4995894;28;20033;-74
2022/07/30 09:53:06;;;;;;;31.15;28.85;;;25.30;99.90;;;;;;5011997;28;20049;-75
2022/07/30 09:55:35;;;;;;;33.03;30.33;;;25.40;99.90;;;;;;5026850;28;20049;-73
2022/07/30 09:58:09;;;;;;;32.35;30.02;;;25.30;99.90;;;;;;4997499;28;20075;-74
2022/07/30 10:00:41;;;;;;;31.73;29.73;;;24.70;99.90;;;;;;5014519;28;20450;-73
2022/07/30 10:03:24;;;;;;;32.67;30.42;;;24.90;99.90;;;;;;5012344;28;20411;-74
2022/07/30 10:06:34;;;;;;;33.17;30.95;;;25.10;99.90;;;;;;5008827;28;20554;-73
2022/07/30 10:09:08;;;;;;;32.58;30.33;;;25.40;99.90;;;;;;5011510;28;20103;-74
2022/07/30 10:11:47;;;;;;;32.72;30.20;;;25.40;99.90;;;;;;5002055;28;20033;-74
2022/07/30 10:14:14;;;;;;;32.28;29.83;;;25.70;99.90;;;;;;5014783;28;20523;-73
2022/07/30 10:16:41;;;;;;;33.17;30.60;;;25.90;99.90;;;;;;4998390;28;20691;-74
2022/07/30 10:19:11;;;;;;;32.53;30.15;;;25.90;99.90;;;;;;5029242;28;20472;-75
2022/07/30 10:22:02;;;;;;;32.15;29.92;;;26.00;99.90;;;;;;5013602;28;20049;-73
2022/07/30 10:24:56;;;;;;;32.55;29.98;;;25.70;99.90;;;;;;5017517;28;20579;-74
2022/07/30 10:27:55;;;;;;;31.05;28.90;;;25.50;99.90;;;;;;5001438;28;20487;-73
2022/07/30 10:30:30;;;;;;;33.92;31.52;;;25.60;99.90;;;;;;5009418;28;20095;-74
2022/07/30 10:32:58;;;;;;;32.05;29.67;;;25.70;99.90;;;;;;5015505;28;20048;-74
2022/07/30 10:35:27;;;;;;;32.97;30.45;;;25.30;99.90;;;;;;5013187;28;20052;-74
2022/07/30 10:38:10;;;;;;;32.90;30.27;;;25.30;99.90;;;;;;5016505;28;20056;-73
2022/07/30 10:40:48;;;;;;;31.33;28.80;;;25.00;99.90;;;;;;4994334;28;20049;-74
2022/07/30 10:43:54;;;;;;;31.73;29.27;;;25.00;99.90;;;;;;5016029;28;20045;-74
2022/07/30 10:46:26;;;;;;;32.33;30.00;;;25.00;99.90;;;;;;5004944;28;20038;-72
2022/07/30 10:48:54;;;;;;;29.65;27.52;;;25.00;99.90;;;;;;5012660;28;20076;-72
2022/07/30 10:51:40;;;;;;;28.83;26.90;;;24.90;99.90;;;;;;5018276;28;20080;-72
2022/07/30 10:54:43;;;;;;;28.75;26.63;;;25.00;99.90;;;;;;5026151;28;20044;-74
2022/07/30 10:57:18;;;;;;;29.05;27.15;;;25.20;99.90;;;;;;5010889;28;20523;-72
2022/07/30 11:00:00;;;;;;;29.00;26.98;;;24.70;99.90;;;;;;5013442;28;20049;-75
2022/07/30 11:02:33;;;;;;;27.38;25.48;;;24.60;99.90;;;;;;5013226;28;20046;-73
2022/07/30 11:05:17;;;;;;;29.83;27.90;;;24.80;99.90;;;;;;4998992;28;20049;-73
2022/07/30 11:07:52;;;;;;;32.28;29.77;;;24.70;99.90;;;;;;4998795;28;20049;-73
2022/07/30 11:10:39;;;;;;;28.48;26.63;;;25.10;99.90;;;;;;5023337;28;20115;-73
2022/07/30 11:13:09;;;;;;;30.10;28.00;;;25.40;99.90;;;;;;5029418;28;20045;-73
2022/07/30 11:16:02;;;;;;;27.90;25.75;;;25.50;99.90;;;;;;5015531;28;20153;-75
2022/07/30 11:19:03;;;;;;;30.48;28.27;;;25.40;99.90;;;;;;5010275;28;20069;-74
2022/07/30 11:22:21;;;;;;;29.58;27.70;;;25.20;99.90;;;;;;5013114;28;20060;-75
2022/07/30 11:24:49;;;;;;;32.38;30.08;;;25.30;99.90;;;;;;4998111;28;20041;-74
2022/07/30 11:27:39;;;;;;;29.75;27.77;;;25.40;99.90;;;;;;5015427;28;20037;-75
2022/07/30 11:30:16;;;;;;;30.67;28.48;;;26.00;99.90;;;;;;5012487;28;20395;-73
2022/07/30 11:32:53;;;;;;;31.85;29.75;;;25.80;99.90;;;;;;5019511;28;20053;-74
2022/07/30 11:35:24;;;;;;;30.17;27.95;;;25.80;99.90;;;;;;5035081;28;20606;-74
2022/07/30 11:38:14;;;;;;;28.50;26.65;;;25.60;99.90;;;;;;5033896;28;20037;-74
2022/07/30 11:40:44;;;;;;;27.75;25.90;;;25.60;99.90;;;;;;5014840;28;20377;-73
2022/07/30 11:43:28;;;;;;;28.80;26.85;;;25.90;99.90;;;;;;5022913;28;20048;-73
2022/07/30 11:46:13;;;;;;;29.88;27.45;;;26.00;99.90;;;;;;5031326;28;20246;-74
2022/07/30 11:48:56;;;;;;;31.45;29.42;;;26.40;99.90;;;;;;5011775;28;20046;-72
2022/07/30 11:51:23;;;;;;;29.10;27.30;;;26.20;99.90;;;;;;5009394;28;20052;-72
2022/07/30 11:54:04;;;;;;;30.75;28.33;;;26.20;99.90;;;;;;5015073;28;20114;-72
2022/07/30 11:56:31;;;;;;;30.17;28.38;;;26.10;99.90;;;;;;5014106;28;20623;-74
2022/07/30 11:59:07;;;;;;;30.27;28.00;;;25.80;99.90;;;;;;5016994;28;20156;-74
2022/07/30 12:01:34;;;;;;;29.77;27.35;;;25.90;99.90;;;;;;5013117;28;20502;-74
2022/07/30 12:04:03;;;;;;;28.23;25.98;;;26.00;99.90;;;;;;5015877;28;20068;-75
2022/07/30 12:06:31;;;;;;;31.02;28.90;;;25.80;99.90;;;;;;5014809;28;20042;-74
2022/07/30 12:08:58;;;;;;;27.55;25.55;;;26.00;99.90;;;;;;5014710;28;20033;-73
2022/07/30 12:11:32;;;;;;;31.92;29.30;;;25.50;99.90;;;;;;5013929;28;20514;-72
2022/07/30 12:14:00;;;;;;;30.58;28.48;;;25.40;99.90;;;;;;5013097;28;20046;-73
2022/07/30 12:16:29;;;;;;;28.25;26.00;;;25.90;99.90;;;;;;5013434;28;20041;-72
2022/07/30 12:19:06;;;;;;;30.13;28.13;;;26.20;99.90;;;;;;5015912;28;20095;-73
2022/07/30 12:21:35;;;;;;;30.45;28.45;;;26.50;99.90;;;;;;5014032;28;20107;-73
2022/07/30 12:24:06;;;;;;;32.35;29.73;;;26.80;99.90;;;;;;5022713;28;20045;-73
2022/07/30 12:26:34;;;;;;;29.85;27.52;;;26.70;99.90;;;;;;4999760;28;20298;-74
2022/07/30 12:29:08;;;;;;;27.95;25.80;;;26.70;99.90;;;;;;5015619;28;20036;-74
2022/07/30 12:31:36;;;;;;;27.63;25.55;;;26.70;99.90;;;;;;5016166;28;20653;-73
2022/07/30 12:34:04;;;;;;;30.70;28.55;;;26.20;99.90;;;;;;5020024;28;21104;-73
2022/07/30 12:36:33;;;;;;;28.60;26.65;;;25.80;99.90;;;;;;5015667;28;20049;-73
2022/07/30 12:39:05;;;;;;;29.08;27.05;;;25.70;99.90;;;;;;5018338;28;20037;-72
2022/07/30 12:41:46;;;;;;;29.45;27.63;;;25.70;99.90;;;;;;5012062;28;20179;-73
2022/07/30 12:44:32;;;;;;;29.67;27.77;;;26.00;99.90;;;;;;5017358;28;20399;-74
2022/07/30 12:46:59;;;;;;;26.77;24.88;;;26.40;99.90;;;;;;5012602;28;20076;-74
2022/07/30 12:49:31;;;;;;;27.75;25.67;;;26.40;99.90;;;;;;5014963;28;20137;-71
2022/07/30 12:52:26;;;;;;;27.83;25.75;;;26.00;99.90;;;;;;5009810;28;20037;-74
2022/07/30 12:55:03;;;;;;;26.90;24.55;;;25.60;99.90;;;;;;5019863;28;20106;-74
2022/07/30 12:57:51;;;;;;;27.23;25.25;;;25.20;99.90;;;;;;5030465;22;20056;-77
2022/07/30 13:00:19;;;;;;;27.30;25.20;;;25.20;99.90;;;;;;5052255;28;20185;-77
2022/07/30 13:02:47;;;;;;;26.25;24.42;;;25.40;99.90;;;;;;5063588;28;20097;-77